createdAt,value
2022-11-02T00:02:18.499Z,34.95
2022-11-02T00:04:46.136Z,49.23
2022-11-02T00:07:13.652Z,42.08
2022-11-02T00:09:41.000Z,58.95
2022-11-02T00:12:08.584Z,74.22
2022-11-02T00:14:36.232Z,73.05
2022-11-02T00:17:04.007Z,60.25
2022-11-02T00:19:31.504Z,39.33
2022-11-02T00:22:01.044Z,43.45
2022-11-02T00:24:31.990Z,32.95
2022-11-02T00:26:59.738Z,30.68
2022-11-02T00:29:33.456Z,29.80
2022-11-02T00:31:57.614Z,30.97
2022-11-02T00:34:25.339Z,29.77
2022-11-02T00:36:55.610Z,33.00
2022-11-02T00:39:23.569Z,35.10
2022-11-02T00:41:51.321Z,31.30
2022-11-02T00:44:19.222Z,32.98
2022-11-02T00:46:47.065Z,33.38
2022-11-02T00:49:14.891Z,32.30
2022-11-02T00:51:43.837Z,29.42
2022-11-02T00:54:13.066Z,29.60
2022-11-02T00:56:40.691Z,27.55
2022-11-02T00:59:08.406Z,30.70
2022-11-02T01:01:36.076Z,32.58
2022-11-02T01:04:03.836Z,29.42
2022-11-02T01:06:32.224Z,31.77
2022-11-02T01:09:03.596Z,34.40
2022-11-02T01:11:36.630Z,37.95
2022-11-02T01:14:07.837Z,45.73
2022-11-02T01:16:41.073Z,33.20
2022-11-02T01:21:44.038Z,35.17
2022-11-02T01:24:14.454Z,38.02
2022-11-02T01:26:42.860Z,33.45
2022-11-02T01:29:13.727Z,36.60
2022-11-02T01:31:41.132Z,41.30
2022-11-02T01:34:08.568Z,38.10
2022-11-02T01:36:36.344Z,41.98
2022-11-02T01:39:04.000Z,41.20
2022-11-02T01:41:31.707Z,59.53
2022-11-02T01:44:04.344Z,56.15
2022-11-02T01:46:42.146Z,38.85
2022-11-02T01:49:14.339Z,61.83
2022-11-02T01:51:53.231Z,58.55
2022-11-02T01:54:29.034Z,34.67
2022-11-02T01:57:01.220Z,68.28
2022-11-02T01:59:37.004Z,31.20
2022-11-02T02:02:09.637Z,30.62
2022-11-02T02:04:37.979Z,29.03
2022-11-02T02:07:05.856Z,24.50
2022-11-02T02:09:34.353Z,26.73
2022-11-02T02:12:02.363Z,24.12
2022-11-02T02:14:30.187Z,27.20
2022-11-02T02:17:36.257Z,24.60
2022-11-02T02:20:36.877Z,25.97
2022-11-02T02:23:55.160Z,31.15
2022-11-02T02:26:37.493Z,30.50
2022-11-02T02:29:24.565Z,32.20
2022-11-02T02:32:16.312Z,32.20
2022-11-02T02:34:54.682Z,27.55
2022-11-02T02:37:53.518Z,24.40
2022-11-02T02:40:26.494Z,33.08
2022-11-02T02:43:01.348Z,33.02
2022-11-02T02:45:59.173Z,47.48
2022-11-02T02:48:28.222Z,33.90
2022-11-02T02:51:03.846Z,29.85
2022-11-02T02:53:50.581Z,31.07
2022-11-02T02:56:21.947Z,36.75
2022-11-02T02:59:00.558Z,50.05
2022-11-02T03:01:28.775Z,51.48
2022-11-02T03:03:56.495Z,54.33
2022-11-02T03:06:33.870Z,34.18
2022-11-02T03:09:20.520Z,44.05
2022-11-02T03:12:06.101Z,51.73
2022-11-02T03:15:13.473Z,17.82
2022-11-02T03:18:25.620Z,16.67
2022-11-02T03:21:42.382Z,18.32
2022-11-02T03:24:17.048Z,16.55
2022-11-02T03:27:13.258Z,15.18
2022-11-02T03:30:16.896Z,15.40
2022-11-02T03:33:07.909Z,19.02
2022-11-02T03:35:52.237Z,14.68
2022-11-02T03:38:54.471Z,14.43
2022-11-02T03:41:24.622Z,15.05
2022-11-02T03:43:57.710Z,16.32
2022-11-02T03:46:27.493Z,15.53
2022-11-02T03:48:56.594Z,24.90
2022-11-02T03:51:26.634Z,25.82
2022-11-02T03:54:07.733Z,16.37
2022-11-02T03:56:41.602Z,21.93
2022-11-02T03:59:09.313Z,18.40
2022-11-02T04:01:42.810Z,24.95
2022-11-02T04:04:11.335Z,23.50
2022-11-02T04:06:41.925Z,34.23
2022-11-02T04:09:11.615Z,31.12
2022-11-02T04:11:58.188Z,30.27
2022-11-02T04:14:40.884Z,36.00
2022-11-02T04:19:59.053Z,52.15
2022-11-02T04:22:44.883Z,48.13
2022-11-02T04:25:20.044Z,42.93
2022-11-02T04:28:09.329Z,18.40
2022-11-02T04:30:41.468Z,20.17
2022-11-02T04:33:27.726Z,29.07
2022-11-02T04:36:00.951Z,15.08
2022-11-02T04:38:42.126Z,15.63
2022-11-02T04:41:33.721Z,14.18
2022-11-02T04:44:01.927Z,24.67
2022-11-02T04:46:33.866Z,17.48
2022-11-02T04:49:01.866Z,16.10
2022-11-02T04:51:31.391Z,15.45
2022-11-02T04:53:59.488Z,16.77
2022-11-02T04:56:29.033Z,22.25
2022-11-02T04:58:59.287Z,19.50
2022-11-02T05:01:29.645Z,29.57
2022-11-02T05:03:58.926Z,39.48
2022-11-02T05:06:27.546Z,25.77
2022-11-02T05:08:55.577Z,44.65
2022-11-02T05:11:24.032Z,59.08
2022-11-02T05:13:51.910Z,54.58
2022-11-02T05:16:19.560Z,78.87
2022-11-02T05:18:48.758Z,81.75
2022-11-02T05:21:16.701Z,70.08
2022-11-02T05:23:44.811Z,62.80
2022-11-02T05:26:12.562Z,85.05
2022-11-02T05:28:41.734Z,64.05
2022-11-02T05:31:09.858Z,57.90
2022-11-02T05:33:37.575Z,72.42
2022-11-02T05:36:07.435Z,71.17
2022-11-02T05:38:36.281Z,67.22
2022-11-02T05:41:04.026Z,53.87
2022-11-02T05:43:33.514Z,58.70
2022-11-02T05:46:03.529Z,24.43
2022-11-02T05:48:33.271Z,20.20
2022-11-02T05:51:03.322Z,21.70
2022-11-02T05:53:33.341Z,16.02
2022-11-02T05:56:03.367Z,20.77
2022-11-02T05:58:32.418Z,13.90
2022-11-02T06:01:02.761Z,14.75
2022-11-02T06:03:31.547Z,22.22
2022-11-02T06:06:02.823Z,10.23
2022-11-02T06:08:38.955Z,7.33
2022-11-02T06:11:09.753Z,16.90
2022-11-02T06:13:37.404Z,14.85
2022-11-02T06:16:09.714Z,16.45
2022-11-02T06:18:39.188Z,13.80
2022-11-02T06:21:07.461Z,14.05
2022-11-02T06:23:35.742Z,14.53
2022-11-02T06:26:03.657Z,30.50
2022-11-02T06:28:31.510Z,13.25
2022-11-02T06:30:59.163Z,23.15
2022-11-02T06:33:27.132Z,17.40
2022-11-02T06:35:55.382Z,18.40
2022-11-02T06:38:23.728Z,15.83
2022-11-02T06:41:02.587Z,18.37
2022-11-02T06:43:30.567Z,18.48
2022-11-02T06:45:58.588Z,14.63
2022-11-02T06:48:34.201Z,27.15
2022-11-02T06:50:57.739Z,34.98
2022-11-02T06:53:25.932Z,31.90
2022-11-02T06:55:55.874Z,18.60
2022-11-02T06:58:24.127Z,15.32
2022-11-02T07:01:01.523Z,13.78
2022-11-02T07:03:30.532Z,11.85
2022-11-02T07:05:58.993Z,9.78
2022-11-02T07:08:29.033Z,12.37
2022-11-02T07:10:57.531Z,12.13
2022-11-02T07:13:25.146Z,11.73
2022-11-02T07:15:54.248Z,13.78
2022-11-02T07:18:22.910Z,10.38
2022-11-02T07:20:50.585Z,13.35
2022-11-02T07:23:18.222Z,8.30
2022-11-02T07:25:45.799Z,11.22
2022-11-02T07:28:13.778Z,12.82
2022-11-02T07:30:41.627Z,11.33
2022-11-02T07:33:09.281Z,14.85
2022-11-02T07:35:37.226Z,18.92
2022-11-02T07:38:07.369Z,13.48
2022-11-02T07:40:36.084Z,19.30
2022-11-02T07:43:05.324Z,27.30
2022-11-02T07:45:34.934Z,13.65
2022-11-02T07:48:02.480Z,19.40
2022-11-02T07:50:29.929Z,23.07
2022-11-02T07:52:58.697Z,23.55
2022-11-02T07:55:29.872Z,18.67
2022-11-02T07:58:03.896Z,10.93
2022-11-02T08:00:34.956Z,9.43
2022-11-02T08:03:04.923Z,13.70
2022-11-02T08:05:38.905Z,9.60
2022-11-02T08:08:11.156Z,10.45
2022-11-02T08:10:40.412Z,8.23
2022-11-02T08:13:15.279Z,10.90
2022-11-02T08:15:42.945Z,12.18
2022-11-02T08:18:19.969Z,12.40
2022-11-02T08:20:48.281Z,9.93
2022-11-02T08:23:18.517Z,15.70
2022-11-02T08:25:47.562Z,10.35
2022-11-02T08:28:19.404Z,12.05
2022-11-02T08:30:47.252Z,14.03
2022-11-02T08:33:16.763Z,10.72
2022-11-02T08:35:46.170Z,16.32
2022-11-02T08:38:14.842Z,19.75
2022-11-02T08:40:42.947Z,17.32
2022-11-02T08:43:13.684Z,16.17
2022-11-02T08:48:14.877Z,17.98
2022-11-02T08:50:42.189Z,15.35
2022-11-02T08:53:10.005Z,19.05
2022-11-02T08:55:37.461Z,15.13
2022-11-02T08:58:05.299Z,12.58
2022-11-02T09:00:34.597Z,13.75
2022-11-02T09:03:09.150Z,13.08
2022-11-02T09:05:40.276Z,15.93
2022-11-02T09:08:12.289Z,9.28
2022-11-02T09:10:40.121Z,39.13
2022-11-02T09:13:11.490Z,17.17
2022-11-02T09:15:39.927Z,21.42
2022-11-02T09:18:09.907Z,10.80
2022-11-02T09:20:37.519Z,11.05
2022-11-02T09:23:04.883Z,10.55
2022-11-02T09:25:32.565Z,12.37
2022-11-02T09:28:00.244Z,18.45
2022-11-02T09:30:29.886Z,18.32
2022-11-02T09:33:06.559Z,21.55
2022-11-02T09:35:38.929Z,24.40
2022-11-02T09:38:07.038Z,28.35
2022-11-02T09:40:42.555Z,19.15
2022-11-02T09:43:29.460Z,23.60
2022-11-02T09:48:44.818Z,14.20
2022-11-02T09:51:35.655Z,20.77
2022-11-02T09:54:17.942Z,18.70
2022-11-02T09:56:46.889Z,23.57
2022-11-02T09:59:21.951Z,21.90
2022-11-02T10:02:20.889Z,21.75
2022-11-02T10:05:09.252Z,17.73
2022-11-02T10:08:01.053Z,18.52
2022-11-02T10:10:52.025Z,17.55
2022-11-02T10:13:25.052Z,18.80
2022-11-02T10:16:01.198Z,19.00
2022-11-02T10:18:30.102Z,18.70
2022-11-02T10:21:02.891Z,17.75
2022-11-02T10:23:35.500Z,14.87
2022-11-02T10:26:04.323Z,19.42
2022-11-02T10:28:38.811Z,16.95
2022-11-02T10:31:15.830Z,19.32
2022-11-02T10:33:43.554Z,19.55
2022-11-02T10:36:31.337Z,16.85
2022-11-02T10:39:24.205Z,23.57
2022-11-02T10:42:18.564Z,21.20
2022-11-02T10:45:21.563Z,20.77
2022-11-02T10:48:20.071Z,22.17
2022-11-02T10:50:55.227Z,23.87
2022-11-02T10:56:13.066Z,27.85
2022-11-02T10:58:45.814Z,23.55
2022-11-02T11:01:13.805Z,25.40
2022-11-02T11:04:06.773Z,24.35
2022-11-02T11:06:42.771Z,27.45
2022-11-02T11:09:23.653Z,27.48
2022-11-02T11:12:21.695Z,22.37
2022-11-02T11:20:27.755Z,31.57
2022-11-02T11:23:22.426Z,27.82
2022-11-02T11:26:10.706Z,27.58
2022-11-02T11:28:56.473Z,30.90
2022-11-02T11:31:25.115Z,25.43
2022-11-02T11:33:56.083Z,29.12
2022-11-02T11:36:31.106Z,30.05
2022-11-02T11:39:07.111Z,31.23
2022-11-02T11:41:39.541Z,28.47
2022-11-02T11:44:11.688Z,29.48
2022-11-02T11:46:45.762Z,31.62
2022-11-02T11:50:02.934Z,28.95
2022-11-02T11:52:03.867Z,29.07
2022-11-02T11:54:33.305Z,27.13
2022-11-02T11:57:27.688Z,29.82
2022-11-02T11:59:57.918Z,26.82
2022-11-02T12:02:35.683Z,25.50
2022-11-02T12:05:16.373Z,24.55
2022-11-02T12:08:10.399Z,32.78
2022-11-02T12:10:46.276Z,31.52
2022-11-02T12:13:45.415Z,32.35
2022-11-02T12:16:36.624Z,30.55
2022-11-02T12:19:33.006Z,35.17
2022-11-02T12:22:05.124Z,38.33
2022-11-02T12:25:25.332Z,35.52
2022-11-02T12:28:08.659Z,36.10
2022-11-02T12:30:44.022Z,38.15
2022-11-02T12:33:38.479Z,39.10
2022-11-02T12:36:32.711Z,35.83
2022-11-02T12:39:11.658Z,39.13
2022-11-02T12:42:02.275Z,38.02
2022-11-02T12:45:21.191Z,32.17
2022-11-02T12:48:00.929Z,35.23
2022-11-02T12:50:55.123Z,33.48
2022-11-02T12:53:46.399Z,32.17
2022-11-02T12:56:34.450Z,31.15
2022-11-02T12:59:02.348Z,34.13
2022-11-02T13:01:40.324Z,38.88
2022-11-02T13:04:30.311Z,35.50
2022-11-02T13:07:03.725Z,35.98
2022-11-02T13:09:58.963Z,36.38
2022-11-02T13:12:27.682Z,31.05
2022-11-02T13:14:57.756Z,44.23
2022-11-02T13:17:44.899Z,36.10
2022-11-02T13:20:29.434Z,34.27
2022-11-02T13:23:36.045Z,36.95
2022-11-02T13:26:21.370Z,36.17
2022-11-02T13:28:53.904Z,32.35
2022-11-02T13:31:29.347Z,38.77
2022-11-02T13:34:01.576Z,37.58
2022-11-02T13:36:29.235Z,39.48
2022-11-02T13:39:02.617Z,37.48
2022-11-02T13:42:07.585Z,33.48
2022-11-02T13:44:43.416Z,39.50
2022-11-02T13:47:57.730Z,38.58
2022-11-02T13:50:28.271Z,40.83
2022-11-02T13:53:04.603Z,46.42
2022-11-02T13:55:46.115Z,59.03
2022-11-02T13:58:24.482Z,72.00
2022-11-02T14:00:56.491Z,86.87
2022-11-02T14:03:50.898Z,50.67
2022-11-02T14:06:20.396Z,50.40
2022-11-02T14:09:04.846Z,69.70
2022-11-02T14:11:43.358Z,49.55
2022-11-02T14:14:21.600Z,42.90
2022-11-02T14:16:55.401Z,40.52
2022-11-02T14:19:51.961Z,43.65
2022-11-02T14:22:20.560Z,68.40
2022-11-02T14:24:53.927Z,45.98
2022-11-02T14:27:26.993Z,44.27
2022-11-02T14:29:55.676Z,44.70
2022-11-02T14:32:43.153Z,41.77
2022-11-02T14:35:28.284Z,38.23
2022-11-02T14:38:25.343Z,36.98
2022-11-02T14:41:07.464Z,39.98
2022-11-02T14:44:01.873Z,35.78
2022-11-02T14:46:59.515Z,39.70
2022-11-02T14:49:34.877Z,38.83
2022-11-02T14:52:16.952Z,39.48
2022-11-02T14:55:20.237Z,41.15
2022-11-02T14:57:59.240Z,47.10
2022-11-02T15:00:50.187Z,46.33
2022-11-02T15:03:34.877Z,47.62
2022-11-02T15:06:13.688Z,45.52
2022-11-02T15:09:00.641Z,54.53
2022-11-02T15:11:51.612Z,53.10
2022-11-02T15:14:42.685Z,73.40
2022-11-02T15:17:18.950Z,82.37
2022-11-02T15:19:52.371Z,71.62
2022-11-02T15:22:45.715Z,63.20
2022-11-02T15:25:27.465Z,49.93
2022-11-02T15:28:09.268Z,51.25
2022-11-02T15:30:47.115Z,49.67
2022-11-02T15:33:31.590Z,48.63
2022-11-02T15:36:01.186Z,43.10
2022-11-02T15:38:35.234Z,40.20
2022-11-02T15:41:35.351Z,43.40
2022-11-02T15:44:36.194Z,38.20
2022-11-02T15:47:48.016Z,40.15
2022-11-02T15:50:26.552Z,41.35
2022-11-02T15:53:34.924Z,39.27
2022-11-02T15:56:10.444Z,36.60
2022-11-02T15:59:18.715Z,40.55
2022-11-02T16:01:48.356Z,42.88
2022-11-02T16:04:21.113Z,45.95
2022-11-02T16:06:49.362Z,38.90
2022-11-02T16:09:35.736Z,42.53
2022-11-02T16:12:23.191Z,44.67
2022-11-02T16:15:14.373Z,52.83
2022-11-02T16:17:42.101Z,48.10
2022-11-02T16:20:19.805Z,44.45
2022-11-02T16:22:57.874Z,43.60
2022-11-02T16:25:45.597Z,40.98
2022-11-02T16:28:31.976Z,38.73
2022-11-02T16:31:18.489Z,42.50
2022-11-02T16:33:55.620Z,41.92
2022-11-02T16:36:33.076Z,43.80
2022-11-02T16:39:07.570Z,41.18
2022-11-02T16:41:36.434Z,48.55
2022-11-02T16:44:14.872Z,46.05
2022-11-02T16:46:49.985Z,44.33
2022-11-02T16:49:23.820Z,39.08
2022-11-02T16:52:02.549Z,32.78
2022-11-02T16:54:40.297Z,39.18
2022-11-02T16:57:24.738Z,34.20
2022-11-02T16:59:59.618Z,36.75
2022-11-02T17:02:42.524Z,33.08
2022-11-02T17:05:21.519Z,32.13
2022-11-02T17:08:04.632Z,37.17
2022-11-02T17:10:35.774Z,37.23
2022-11-02T17:13:06.781Z,37.58
2022-11-02T17:15:36.448Z,36.17
2022-11-02T17:18:27.267Z,41.73
2022-11-02T17:21:21.646Z,35.75
2022-11-02T17:23:49.641Z,44.08
2022-11-02T17:26:28.524Z,43.65
2022-11-02T17:29:01.855Z,39.63
2022-11-02T17:31:37.506Z,38.10
2022-11-02T17:34:15.278Z,50.55
2022-11-02T17:36:48.415Z,36.23
2022-11-02T17:39:18.137Z,39.88
2022-11-02T17:42:13.094Z,35.65
2022-11-02T17:44:41.269Z,35.65
2022-11-02T17:47:14.136Z,35.23
2022-11-02T17:49:41.615Z,32.73
2022-11-02T17:52:15.804Z,34.63
2022-11-02T17:54:43.194Z,36.48
2022-11-02T17:57:14.815Z,38.67
2022-11-02T17:59:42.316Z,52.30
2022-11-02T18:02:15.459Z,41.10
2022-11-02T18:07:11.753Z,45.17
2022-11-02T18:09:39.959Z,45.92
2022-11-02T18:12:14.499Z,41.40
2022-11-02T18:14:41.998Z,37.63
2022-11-02T18:17:09.681Z,35.50
2022-11-02T18:19:37.124Z,36.13
2022-11-02T18:22:04.651Z,42.10
2022-11-02T18:24:32.023Z,38.38
2022-11-02T18:26:59.545Z,43.13
2022-11-02T18:29:27.043Z,44.15
2022-11-02T18:31:54.287Z,42.48
2022-11-02T18:34:21.757Z,47.85
2022-11-02T18:36:49.313Z,43.87
2022-11-02T18:39:16.831Z,39.70
2022-11-02T18:41:44.193Z,47.17
2022-11-02T18:44:15.486Z,39.58
2022-11-02T18:46:42.173Z,38.58
2022-11-02T18:49:09.744Z,42.50
2022-11-02T18:51:37.289Z,71.40
2022-11-02T18:54:06.050Z,129.82
2022-11-02T18:56:34.071Z,100.10
2022-11-02T18:59:01.609Z,59.65
2022-11-02T19:01:29.542Z,85.67
2022-11-02T19:03:59.835Z,59.80
2022-11-02T19:06:49.823Z,49.77
2022-11-02T19:09:21.010Z,45.88
2022-11-02T19:12:04.993Z,40.60
2022-11-02T19:17:07.544Z,42.55
2022-11-02T19:19:35.895Z,44.95
2022-11-02T19:22:03.905Z,40.52
2022-11-02T19:24:31.356Z,44.75
2022-11-02T19:26:59.018Z,53.20
2022-11-02T19:29:26.611Z,53.55
2022-11-02T19:31:53.923Z,50.38
2022-11-02T19:34:22.590Z,47.62
2022-11-02T19:36:50.160Z,48.08
2022-11-02T19:39:17.716Z,43.65
2022-11-02T19:41:46.935Z,43.58
2022-11-02T19:44:14.182Z,46.88
2022-11-02T19:49:09.081Z,52.80
2022-11-02T19:51:36.599Z,48.15
2022-11-02T19:54:04.756Z,46.23
2022-11-02T19:56:35.218Z,46.18
2022-11-02T19:59:04.400Z,58.17
2022-11-02T20:01:36.373Z,61.28
2022-11-02T20:04:04.521Z,58.17
2022-11-02T20:06:36.034Z,45.90
2022-11-02T20:09:06.325Z,40.48
2022-11-02T20:11:35.521Z,43.02
2022-11-02T20:14:04.883Z,42.65
2022-11-02T20:16:32.468Z,52.15
2022-11-02T20:19:00.338Z,48.70
2022-11-02T20:21:34.602Z,49.08
2022-11-02T20:24:00.486Z,51.73
2022-11-02T20:26:36.430Z,53.78
2022-11-02T20:29:05.805Z,53.38
2022-11-02T20:31:39.956Z,56.42
2022-11-02T20:34:08.823Z,51.23
2022-11-02T20:36:36.343Z,55.20
2022-11-02T20:39:05.121Z,46.65
2022-11-02T20:41:33.188Z,45.80
2022-11-02T20:44:01.220Z,48.83
2022-11-02T20:46:37.698Z,42.25
2022-11-02T20:49:08.516Z,38.78
2022-11-02T20:51:29.764Z,37.23
2022-11-02T20:53:57.612Z,37.40
2022-11-02T20:56:25.187Z,36.65
2022-11-02T20:58:55.631Z,39.65
2022-11-02T21:01:22.096Z,39.73
2022-11-02T21:03:49.888Z,37.83
2022-11-02T21:06:17.500Z,45.90
2022-11-02T21:08:44.857Z,40.88
2022-11-02T21:11:30.486Z,40.55
2022-11-02T21:13:57.797Z,40.63
2022-11-02T21:16:25.416Z,44.38
2022-11-02T21:18:52.736Z,37.80
2022-11-02T21:21:21.511Z,40.98
2022-11-02T21:23:49.053Z,41.30
2022-11-02T21:26:16.908Z,40.45
2022-11-02T21:28:45.675Z,35.60
2022-11-02T21:31:21.123Z,37.17
2022-11-02T21:33:49.707Z,42.38
2022-11-02T21:36:18.354Z,35.03
2022-11-02T21:38:48.153Z,35.40
2022-11-02T21:41:24.043Z,35.38
2022-11-02T21:43:52.083Z,33.67
2022-11-02T21:46:20.049Z,41.60
2022-11-02T21:48:48.091Z,40.17
2022-11-02T21:51:19.999Z,41.60
2022-11-02T21:53:49.456Z,42.30
2022-11-02T21:56:20.560Z,40.20
2022-11-02T21:58:48.963Z,38.80
2022-11-02T22:01:42.481Z,38.73
2022-11-02T22:04:13.550Z,36.38
2022-11-02T22:06:41.967Z,34.53
2022-11-02T22:09:12.381Z,35.98
2022-11-02T22:11:40.571Z,38.20
2022-11-02T22:14:08.237Z,35.10
2022-11-02T22:16:39.576Z,32.40
2022-11-02T22:19:13.782Z,34.23
2022-11-02T22:21:45.600Z,31.50
2022-11-02T22:24:13.253Z,35.60
2022-11-02T22:26:41.069Z,33.30
2022-11-02T22:29:08.959Z,33.67
2022-11-02T22:31:39.804Z,32.03
2022-11-02T22:34:10.028Z,32.70
2022-11-02T22:36:40.497Z,31.25
2022-11-02T22:39:12.202Z,36.83
2022-11-02T22:41:47.978Z,40.15
2022-11-02T22:44:18.602Z,72.58
2022-11-02T22:46:49.192Z,62.38
2022-11-02T22:49:19.361Z,116.67
2022-11-02T22:51:49.985Z,156.72
2022-11-02T22:54:19.511Z,187.75
2022-11-02T22:56:49.120Z,91.32
2022-11-02T22:59:16.707Z,33.65
2022-11-02T23:01:44.802Z,43.70
2022-11-02T23:04:13.036Z,95.60
2022-11-02T23:06:40.417Z,84.22
2022-11-02T23:09:10.634Z,62.35
2022-11-02T23:11:38.409Z,32.83
2022-11-02T23:14:12.765Z,29.95
2022-11-02T23:16:48.769Z,32.73
2022-11-02T23:19:30.532Z,27.15
2022-11-02T23:22:16.043Z,32.90
2022-11-02T23:25:09.096Z,31.65
2022-11-02T23:28:16.069Z,28.50
2022-11-02T23:31:02.652Z,28.95
2022-11-02T23:33:32.732Z,27.93
2022-11-02T23:36:11.763Z,34.35
2022-11-02T23:39:02.613Z,69.45
2022-11-02T23:41:32.670Z,157.07
2022-11-02T23:44:13.296Z,48.75
2022-11-02T23:46:44.614Z,39.53
2022-11-02T23:49:13.388Z,31.50
2022-11-02T23:51:59.390Z,34.60
2022-11-02T23:54:45.508Z,35.78
2022-11-02T23:57:13.274Z,31.37
2022-11-02T23:59:40.742Z,61.63
